Time;durP1;ratioP1;P1;durP2;ratioP2;P2;SDS_P1;SDS_P2;PMS_P1;PMS_P2;Temp;Humidity;BMP_temperature;BMP_pressure;BME280_temperature;BME280_humidity;BME280_pressure;Samples;Min_cycle;Max_cycle;Signal;HPM_P1;HPM_P2
2022/04/28 00:02:17;;;;;;;;;;;;;;;-145.06;0.00;60892.56;4726879;29;19919;-87
2022/04/28 00:04:56;;;;;;;;;;;;;;;-145.06;0.00;60892.56;4721901;29;19919;-87
2022/04/28 00:07:35;;;;;;;;;;;;;;;-145.06;0.00;60892.56;4719034;29;19923;-87
2022/04/28 00:10:14;;;;;;;;;;;;;;;-145.06;0.00;60892.56;4722460;29;19923;-87
2022/04/28 00:12:53;;;;;;;;;;;;;;;-145.06;0.00;60892.56;4724181;29;19915;-86
2022/04/28 00:15:32;;;;;;;;;;;;;;;-145.06;0.00;60892.56;4730731;29;19919;-87
2022/04/28 00:18:11;;;;;;;;;;;;;;;-145.06;0.00;60892.56;4725897;29;20002;-87
2022/04/28 00:20:50;;;;;;;;;;;;;;;-145.06;0.00;60892.56;4728423;29;19923;-86
2022/04/28 00:23:29;;;;;;;;;;;;;;;-145.06;0.00;60892.56;4719891;29;21673;-86
2022/04/28 00:26:08;;;;;;;;;;;;;;;-145.06;0.00;60892.56;4718503;29;19923;-86
2022/04/28 00:28:47;;;;;;;;;;;;;;;-145.06;0.00;60892.56;4725186;29;19923;-87
2022/04/28 00:31:28;;;;;;;;;;;;;;;-145.06;0.00;60892.56;4719042;29;20308;-87
2022/04/28 00:34:07;;;;;;;;;;;;;;;-145.06;0.00;60892.56;4713532;29;19919;-87
2022/04/28 00:36:46;;;;;;;;;;;;;;;-145.06;0.00;60892.56;4714266;29;19923;-87
2022/04/28 00:39:25;;;;;;;;;;;;;;;-145.06;0.00;60892.56;4726335;29;19919;-87
2022/04/28 00:42:11;;;;;;;;;;;;;;;-145.06;0.00;60892.56;4716571;29;19919;-87
2022/04/28 00:44:50;;;;;;;;;;;;;;;-145.06;0.00;60892.56;4720141;29;19923;-87
2022/04/28 00:50:39;;;;;;;;;;;;;;;-145.06;0.00;60892.56;4729403;29;20259;-88
2022/04/28 00:53:18;;;;;;;;;;;;;;;-145.06;0.00;60892.56;4719605;29;20374;-88
2022/04/28 00:55:57;;;;;;;;;;;;;;;-145.06;0.00;60892.56;4724301;29;19919;-87
2022/04/28 00:58:38;;;;;;;;;;;;;;;-145.06;0.00;60892.56;4715612;29;19919;-87
2022/04/28 01:01:17;;;;;;;;;;;;;;;-145.06;0.00;60892.56;4726302;29;19923;-87
2022/04/28 01:03:57;;;;;;;;;;;;;;;-145.06;0.00;60892.56;4745657;29;19919;-87
2022/04/28 01:06:35;;;;;;;;;;;;;;;-145.06;0.00;60892.56;4747493;29;20310;-87
2022/04/28 01:09:14;;;;;;;;;;;;;;;-145.06;0.00;60892.56;4717117;29;19966;-87
2022/04/28 01:11:53;;;;;;;;;;;;;;;-145.06;0.00;60892.56;4723166;29;19955;-86
2022/04/28 01:14:33;;;;;;;;;;;;;;;-145.06;0.00;60892.56;4713118;29;19919;-87
2022/04/28 01:17:12;;;;;;;;;;;;;;;-145.06;0.00;60892.56;4717709;29;19919;-87
2022/04/28 01:19:51;;;;;;;;;;;;;;;-145.06;0.00;60892.56;4726057;29;19919;-87
2022/04/28 01:22:31;;;;;;;;;;;;;;;-145.06;0.00;60892.56;4717556;29;19919;-87
2022/04/28 01:25:11;;;;;;;;;;;;;;;-145.06;0.00;60892.56;4723171;29;19915;-87
2022/04/28 01:27:50;;;;;;;;;;;;;;;-145.06;0.00;60892.56;4724561;29;19927;-87
2022/04/28 01:30:28;;;;;;;;;;;;;;;-145.06;0.00;60892.56;4723815;29;19923;-87
2022/04/28 01:33:07;;;;;;;;;;;;;;;-145.06;0.00;60892.56;4724021;29;20002;-88
2022/04/28 01:35:46;;;;;;;;;;;;;;;-145.06;0.00;60892.56;4726119;29;19923;-87
2022/04/28 01:38:25;;;;;;;;;;;;;;;-145.06;0.00;60892.56;4727428;29;19919;-87
2022/04/28 01:41:04;;;;;;;;;;;;;;;-145.06;0.00;60892.56;4726222;29;20005;-88
2022/04/28 01:43:45;;;;;;;;;;;;;;;-145.06;0.00;60892.56;4732730;29;19919;-88
2022/04/28 01:46:24;;;;;;;;;;;;;;;-145.06;0.00;60892.56;4719716;29;19923;-87
2022/04/28 01:49:03;;;;;;;;;;;;;;;-145.06;0.00;60892.56;4729814;29;19923;-88
2022/04/28 01:54:58;;;;;;;;;;;;;;;8.06;0.00;60892.56;4741296;29;19923;-87
2022/04/28 01:57:39;;;;;;;;;;;;;;;8.03;0.00;60892.56;4723882;29;19919;-87
2022/04/28 02:00:18;;;;;;;;;;;;;;;8.02;0.00;60892.56;4722218;29;20362;-87
2022/04/28 02:02:57;;;;;;;;;;;;;;;8.02;0.00;60892.56;4716454;29;19998;-87
2022/04/28 02:05:36;;;;;;;;;;;;;;;7.98;0.00;60892.56;4745430;29;19927;-87
2022/04/28 02:08:15;;;;;;;;;;;;;;;7.98;0.00;60892.56;4766363;29;19915;-88
2022/04/28 02:10:54;;;;;;;;;;;;;;;7.96;0.00;60892.56;4720368;29;20001;-87
2022/04/28 02:13:33;;;;;;;;;;;;;;;7.90;0.00;60892.56;4724469;29;20018;-87
2022/04/28 02:16:12;;;;;;;;;;;;;;;7.88;0.00;60892.56;4726111;29;19923;-88
2022/04/28 02:18:51;;;;;;;;;;;;;;;7.88;0.00;60892.56;4740048;29;19924;-88
2022/04/28 02:21:30;;;;;;;;;;;;;;;7.84;0.00;60892.56;4745961;29;20089;-89
2022/04/28 02:24:09;;;;;;;;;;;;;;;7.84;0.00;60892.56;4716838;29;20346;-88
2022/04/28 02:26:48;;;;;;;;;;;;;;;7.77;0.00;60892.56;4719345;29;19923;-87
2022/04/28 02:29:27;;;;;;;;;;;;;;;-145.06;0.00;60892.56;4746527;29;20274;-88
2022/04/28 02:32:06;;;;;;;;;;;;;;;-145.06;0.00;60892.56;4727519;29;20007;-89
2022/04/28 02:34:45;;;;;;;;;;;;;;;-145.06;0.00;60892.56;4714803;29;19924;-87
2022/04/28 02:37:24;;;;;;;;;;;;;;;-145.06;0.00;60892.56;4730558;29;19919;-87
2022/04/28 02:40:03;;;;;;;;;;;;;;;-145.06;0.00;60892.56;4747489;29;19919;-86
2022/04/28 02:42:41;;;;;;;;;;;;;;;-145.06;0.00;60892.56;4729022;29;19919;-88
2022/04/28 02:45:20;;;;;;;;;;;;;;;-145.06;0.00;60892.56;4737529;29;19923;-87
2022/04/28 02:48:00;;;;;;;;;;;;;;;-145.06;0.00;60892.56;4726971;29;19923;-87
2022/04/28 02:50:38;;;;;;;;;;;;;;;-145.06;0.00;60892.56;4731093;29;19923;-87
2022/04/28 02:53:18;;;;;;;;;;;;;;;-145.06;0.00;60892.56;4729501;29;19955;-88
2022/04/28 02:55:57;;;;;;;;;;;;;;;-145.06;0.00;60892.56;4740434;29;19923;-87
2022/04/28 02:58:36;;;;;;;;;;;;;;;-145.06;0.00;60892.56;4727391;29;19927;-87
2022/04/28 03:01:15;;;;;;;;;;;;;;;-145.06;0.00;60892.56;4727939;29;19919;-86
2022/04/28 03:03:54;;;;;;;;;;;;;;;-145.06;0.00;60892.56;4717696;29;20414;-89
2022/04/28 03:12:29;;;;;;;;;;;;;;;-145.06;0.00;60892.56;4749492;29;20521;-87
2022/04/28 03:15:08;;;;;;;;;;;;;;;-145.06;0.00;60892.56;4722548;29;20010;-87
2022/04/28 03:17:47;;;;;;;;;;;;;;;-145.06;0.00;60892.56;4730054;29;19919;-87
2022/04/28 03:20:26;;;;;;;;;;;;;;;-145.06;0.00;60892.56;4724011;29;20251;-87
2022/04/28 03:23:05;;;;;;;;;;;;;;;-145.06;0.00;60892.56;4721463;29;19926;-88
2022/04/28 03:25:44;;;;;;;;;;;;;;;-145.06;0.00;60892.56;4734589;29;19923;-88
2022/04/28 03:28:23;;;;;;;;;;;;;;;-145.06;0.00;60892.56;4731829;29;19919;-87
2022/04/28 03:31:03;;;;;;;;;;;;;;;-145.06;0.00;60892.56;4734176;29;19923;-87
2022/04/28 03:33:42;;;;;;;;;;;;;;;-145.06;0.00;60892.56;4728300;29;19923;-87
2022/04/28 03:39:20;;;;;;;;;;;;;;;-145.06;0.00;60892.56;4742541;29;19923;-87
2022/04/28 03:41:59;;;;;;;;;;;;;;;-145.06;0.00;60892.56;4723011;29;19923;-88
2022/04/28 03:44:37;;;;;;;;;;;;;;;-145.06;0.00;60892.56;4748044;29;20622;-87
2022/04/28 03:47:16;;;;;;;;;;;;;;;-145.06;0.00;60892.56;4730947;29;19919;-88
2022/04/28 03:49:55;;;;;;;;;;;;;;;-145.06;0.00;60892.56;4718883;29;19923;-89
2022/04/28 03:52:34;;;;;;;;;;;;;;;-145.06;0.00;60892.56;4722148;29;20267;-87
2022/04/28 03:55:13;;;;;;;;;;;;;;;-145.06;0.00;60892.56;4720361;29;19916;-88
2022/04/28 03:57:52;;;;;;;;;;;;;;;-145.06;0.00;60892.56;4738518;29;19915;-87
2022/04/28 04:00:31;;;;;;;;;;;;;;;-145.06;0.00;60892.56;4717500;29;19919;-89
2022/04/28 04:03:11;;;;;;;;;;;;;;;-145.06;0.00;60892.56;4724514;29;19916;-88
2022/04/28 04:05:49;;;;;;;;;;;;;;;-145.06;0.00;60892.56;4727824;29;19923;-88
2022/04/28 04:08:28;;;;;;;;;;;;;;;-145.06;0.00;60892.56;4719269;29;19923;-88
2022/04/28 04:11:08;;;;;;;;;;;;;;;-145.06;0.00;60892.56;4727311;29;19923;-88
2022/04/28 04:13:46;;;;;;;;;;;;;;;-145.06;0.00;60892.56;4733811;29;20010;-88
2022/04/28 04:16:25;;;;;;;;;;;;;;;8.08;0.00;60892.56;4734666;29;19918;-88
2022/04/28 04:19:05;;;;;;;;;;;;;;;-145.06;0.00;60892.56;4746195;29;20436;-87
2022/04/28 04:21:44;;;;;;;;;;;;;;;21.08;0.00;60892.56;4745970;29;20302;-87
2022/04/28 04:24:23;;;;;;;;;;;;;;;6.79;0.00;60892.56;4731864;29;19919;-88
2022/04/28 04:27:02;;;;;;;;;;;;;;;6.79;0.00;60892.56;4725026;29;20298;-87
2022/04/28 04:29:41;;;;;;;;;;;;;;;6.79;0.00;60892.56;4734245;29;20353;-88
2022/04/28 04:32:25;;;;;;;;;;;;;;;8.08;0.00;60892.56;4731839;29;19919;-89
2022/04/28 04:35:04;;;;;;;;;;;;;;;6.79;0.00;60892.56;4731814;29;20115;-88
2022/04/28 04:37:44;;;;;;;;;;;;;;;8.08;0.00;60892.56;4728034;29;19919;-88
2022/04/28 04:40:23;;;;;;;;;;;;;;;8.08;0.00;60892.56;4732353;29;20318;-88
2022/04/28 04:43:03;;;;;;;;;;;;;;;6.79;0.00;60892.56;4732992;29;19919;-89
2022/04/28 04:45:42;;;;;;;;;;;;;;;21.08;0.00;60892.56;4742050;29;19954;-90
2022/04/28 04:48:22;;;;;;;;;;;;;;;8.08;0.00;60892.56;4728907;29;19927;-88
2022/04/28 04:51:02;;;;;;;;;;;;;;;-145.06;0.00;60892.56;4729337;29;19916;-89
2022/04/28 04:53:41;;;;;;;;;;;;;;;6.50;0.00;60892.56;4724009;29;19919;-88
2022/04/28 04:56:20;;;;;;;;;;;;;;;8.08;0.00;60892.56;4733393;29;19919;-90
2022/04/28 04:59:00;;;;;;;;;;;;;;;8.08;0.00;60892.56;4719419;29;19915;-89
2022/04/28 05:01:39;;;;;;;;;;;;;;;8.08;0.00;60892.56;4725965;29;20461;-88
2022/04/28 05:04:17;;;;;;;;;;;;;;;8.08;0.00;60892.56;4731811;29;19962;-88
2022/04/28 05:06:56;;;;;;;;;;;;;;;8.08;0.00;60892.56;4744461;29;20073;-89
2022/04/28 05:09:37;;;;;;;;;;;;;;;8.08;0.00;60892.56;4745923;29;19927;-89
2022/04/28 05:12:15;;;;;;;;;;;;;;;8.08;0.00;60892.56;4716796;29;19920;-89
2022/04/28 05:14:54;;;;;;;;;;;;;;;8.08;0.00;60892.56;4727616;29;19982;-89
2022/04/28 05:17:34;;;;;;;;;;;;;;;8.08;0.00;60892.56;4732199;29;19919;-90
2022/04/28 05:20:13;;;;;;;;;;;;;;;8.08;0.00;60892.56;4744492;29;19992;-91
2022/04/28 05:22:53;;;;;;;;;;;;;;;10.68;0.00;60892.56;4740468;29;19912;-90
2022/04/28 05:25:32;;;;;;;;;;;;;;;-145.06;0.00;60892.56;4734959;29;19982;-89
2022/04/28 05:28:11;;;;;;;;;;;;;;;8.08;0.00;60892.56;4729249;29;19923;-88
2022/04/28 05:30:50;;;;;;;;;;;;;;;-145.06;0.00;60892.56;4725618;29;20021;-89
2022/04/28 05:33:29;;;;;;;;;;;;;;;8.08;0.00;60892.56;4732291;29;19916;-89
2022/04/28 05:36:09;;;;;;;;;;;;;;;8.08;0.00;60892.56;4723806;29;19927;-88
2022/04/28 05:38:48;;;;;;;;;;;;;;;8.08;0.00;60892.56;4727968;29;19923;-90
2022/04/28 05:41:28;;;;;;;;;;;;;;;-145.06;0.00;60892.56;4723768;29;19919;-90
2022/04/28 05:47:04;;;;;;;;;;;;;;;-145.06;0.00;60892.56;4745611;29;20389;-89
2022/04/28 05:49:43;;;;;;;;;;;;;;;-145.06;0.00;60892.56;4736713;29;19959;-89
2022/04/28 05:52:22;;;;;;;;;;;;;;;-145.06;0.00;60892.56;4722415;29;20377;-90
2022/04/28 05:55:01;;;;;;;;;;;;;;;-145.06;0.00;60892.56;4729803;29;20398;-89
2022/04/28 05:57:40;;;;;;;;;;;;;;;-145.06;0.00;60892.56;4719645;29;19920;-90
2022/04/28 06:00:19;;;;;;;;;;;;;;;-145.06;0.00;60892.56;4729982;29;20254;-89
2022/04/28 06:02:59;;;;;;;;;;;;;;;-145.06;0.00;60892.56;4727363;29;19970;-89
2022/04/28 06:05:38;;;;;;;;;;;;;;;-145.06;0.00;60892.56;4753500;29;20289;-89
2022/04/28 06:08:17;;;;;;;;;;;;;;;-145.06;0.00;60892.56;4724329;29;20366;-90
2022/04/28 06:10:57;;;;;;;;;;;;;;;-145.06;0.00;60892.56;4727426;29;20255;-90
2022/04/28 06:13:37;;;;;;;;;;;;;;;-145.06;0.00;60892.56;4729334;29;19920;-89
2022/04/28 06:16:16;;;;;;;;;;;;;;;-145.06;0.00;60892.56;4732923;29;19946;-89
2022/04/28 06:18:55;;;;;;;;;;;;;;;-145.06;0.00;60892.56;4735265;29;19919;-90
2022/04/28 06:21:35;;;;;;;;;;;;;;;-145.06;0.00;60892.56;4742164;29;20438;-89
2022/04/28 06:24:14;;;;;;;;;;;;;;;-145.06;0.00;60892.56;4722846;29;20006;-89
2022/04/28 06:26:53;;;;;;;;;;;;;;;-145.06;0.00;60892.56;4753754;29;19919;-89
2022/04/28 06:29:32;;;;;;;;;;;;;;;-145.06;0.00;60892.56;4724094;29;19923;-90
2022/04/28 06:32:11;;;;;;;;;;;;;;;-145.06;0.00;60892.56;4726601;29;19919;-89
2022/04/28 06:34:50;;;;;;;;;;;;;;;-145.06;0.00;60892.56;4726300;29;19927;-90
2022/04/28 06:37:29;;;;;;;;;;;;;;;-145.06;0.00;60892.56;4727872;29;20014;-89
2022/04/28 06:40:11;;;;;;;;;;;;;;;-145.06;0.00;60892.56;4729506;29;20196;-89
2022/04/28 06:42:52;;;;;;;;;;;;;;;-145.06;0.00;60892.56;4724013;29;19966;-89
2022/04/28 06:45:31;;;;;;;;;;;;;;;-145.06;0.00;60892.56;4737572;29;19919;-90
2022/04/28 06:48:10;;;;;;;;;;;;;;;-145.06;0.00;60892.56;4728723;29;19931;-89
2022/04/28 06:50:49;;;;;;;;;;;;;;;-145.06;0.00;60892.56;4727037;29;19923;-88
2022/04/28 06:53:28;;;;;;;;;;;;;;;-145.06;0.00;60892.56;4730832;29;19919;-90
2022/04/28 06:56:07;;;;;;;;;;;;;;;-145.06;0.00;60892.56;4720169;29;19920;-89
2022/04/28 06:58:46;;;;;;;;;;;;;;;-145.06;0.00;60892.56;4720432;29;19916;-89
2022/04/28 07:01:24;;;;;;;;;;;;;;;-145.06;0.00;60892.56;4742693;29;20266;-89
2022/04/28 07:04:03;;;;;;;;;;;;;;;-145.06;0.00;60892.56;4745216;29;19930;-89
2022/04/28 07:06:42;;;;;;;;;;;;;;;-145.06;0.00;60892.56;4727342;29;20263;-89
2022/04/28 07:09:21;;;;;;;;;;;;;;;-145.06;0.00;60892.56;4730131;29;19931;-89
2022/04/28 07:12:00;;;;;;;;;;;;;;;9.09;0.00;60892.56;4726068;29;19919;-89
2022/04/28 07:14:39;;;;;;;;;;;;;;;9.17;0.00;60892.56;4724982;29;20384;-89
2022/04/28 07:17:18;;;;;;;;;;;;;;;9.24;0.00;60892.56;4748617;29;19924;-88
2022/04/28 07:19:57;;;;;;;;;;;;;;;-145.06;0.00;60892.56;4721602;29;20357;-89
2022/04/28 07:22:36;;;;;;;;;;;;;;;-145.06;0.00;60892.56;4721577;29;19920;-89
2022/04/28 07:25:15;;;;;;;;;;;;;;;-145.06;0.00;60892.56;4733392;29;19920;-88
2022/04/28 07:27:55;;;;;;;;;;;;;;;-145.06;0.00;60892.56;4720594;29;19927;-88
2022/04/28 07:30:34;;;;;;;;;;;;;;;-145.06;0.00;60892.56;4742770;29;19920;-88
2022/04/28 07:33:13;;;;;;;;;;;;;;;-145.06;0.00;60892.56;4727978;29;19919;-88
2022/04/28 07:35:51;;;;;;;;;;;;;;;-145.06;0.00;60892.56;4720673;29;19919;-90
2022/04/28 07:38:30;;;;;;;;;;;;;;;-145.06;0.00;60892.56;4723797;29;19915;-89
2022/04/28 07:41:10;;;;;;;;;;;;;;;-145.06;0.00;60892.56;4725405;29;19923;-90
2022/04/28 07:43:49;;;;;;;;;;;;;;;-145.06;0.00;60892.56;4725122;29;19923;-90
2022/04/28 07:46:28;;;;;;;;;;;;;;;-145.06;0.00;60892.56;4724699;29;19923;-90
2022/04/28 07:49:07;;;;;;;;;;;;;;;-145.06;0.00;60892.56;4716527;29;20258;-89
2022/04/28 07:51:46;;;;;;;;;;;;;;;-145.06;0.00;60892.56;4718032;29;20390;-89
2022/04/28 07:54:25;;;;;;;;;;;;;;;-145.06;0.00;60892.56;4722976;29;19966;-90
2022/04/28 07:57:04;;;;;;;;;;;;;;;10.60;0.00;60892.56;4726072;29;20513;-88
2022/04/28 07:59:43;;;;;;;;;;;;;;;-145.06;0.00;60892.56;4725457;29;20262;-88
2022/04/28 08:02:22;;;;;;;;;;;;;;;-145.06;0.00;60892.56;4720650;29;19919;-88
2022/04/28 08:05:01;;;;;;;;;;;;;;;-145.06;0.00;60892.56;4719855;29;19923;-89
2022/04/28 08:07:40;;;;;;;;;;;;;;;-145.06;0.00;60892.56;4722939;29;20026;-88
2022/04/28 08:10:19;;;;;;;;;;;;;;;-145.06;0.00;60892.56;4724349;29;19919;-88
2022/04/28 08:12:59;;;;;;;;;;;;;;;-145.06;0.00;60892.56;4738332;29;19923;-89
2022/04/28 08:15:38;;;;;;;;;;;;;;;-145.06;0.00;60892.56;4742007;29;19927;-88
2022/04/28 08:18:17;;;;;;;;;;;;;;;-145.06;0.00;60892.56;4720413;29;19955;-89
2022/04/28 08:20:56;;;;;;;;;;;;;;;13.28;0.00;60892.56;4725342;29;20267;-89
2022/04/28 08:23:36;;;;;;;;;;;;;;;11.77;0.00;60892.56;4737867;29;19962;-89
2022/04/28 08:26:14;;;;;;;;;;;;;;;13.28;0.00;60892.56;4724978;29;19919;-90
2022/04/28 08:28:53;;;;;;;;;;;;;;;-145.06;0.00;60892.56;4723119;29;19974;-89
2022/04/28 08:31:33;;;;;;;;;;;;;;;-145.06;0.00;60892.56;4721077;29;19923;-89
2022/04/28 08:34:12;;;;;;;;;;;;;;;-145.06;0.00;60892.56;4724581;29;19927;-89
2022/04/28 08:36:51;;;;;;;;;;;;;;;-145.06;0.00;60892.56;4729850;29;19919;-89
2022/04/28 08:39:29;;;;;;;;;;;;;;;-145.06;0.00;60892.56;4741333;29;19919;-91
2022/04/28 08:42:11;;;;;;;;;;;;;;;-145.06;0.00;60892.56;4747020;29;19954;-88
2022/04/28 08:44:49;;;;;;;;;;;;;;;-145.06;0.00;60892.56;4751841;29;19919;-89
2022/04/28 08:47:28;;;;;;;;;;;;;;;-145.06;0.00;60892.56;4724704;29;19919;-90
2022/04/28 08:50:08;;;;;;;;;;;;;;;-145.06;0.00;60892.56;4719476;29;19919;-89
2022/04/28 08:52:48;;;;;;;;;;;;;;;13.12;0.00;60892.56;4728775;29;20349;-89
2022/04/28 08:55:27;;;;;;;;;;;;;;;13.16;0.00;60892.56;4734199;29;19978;-89
2022/04/28 08:58:06;;;;;;;;;;;;;;;13.25;0.00;60892.56;4731403;29;19962;-88
2022/04/28 09:00:45;;;;;;;;;;;;;;;-145.06;0.00;60892.56;4731140;29;19919;-89
2022/04/28 09:03:24;;;;;;;;;;;;;;;-145.06;0.00;60892.56;4746894;29;19920;-89
2022/04/28 09:06:16;;;;;;;;;;;;;;;-145.06;0.00;60892.56;4720125;29;19920;-89
2022/04/28 09:08:59;;;;;;;;;;;;;;;-145.06;0.00;60892.56;4751768;29;19919;-89
2022/04/28 09:11:40;;;;;;;;;;;;;;;-145.06;0.00;60892.56;4748268;29;19915;-89
2022/04/28 09:14:20;;;;;;;;;;;;;;;-145.06;0.00;60892.56;4728872;29;20022;-88
2022/04/28 09:17:00;;;;;;;;;;;;;;;-145.06;0.00;60892.56;4735903;29;19915;-89
2022/04/28 09:19:40;;;;;;;;;;;;;;;-145.06;0.00;60892.56;4723005;29;19955;-89
2022/04/28 09:22:22;;;;;;;;;;;;;;;-145.06;0.00;60892.56;4731241;29;19923;-88
2022/04/28 09:25:01;;;;;;;;;;;;;;;-145.06;0.00;60892.56;4752146;29;19919;-89
2022/04/28 09:27:41;;;;;;;;;;;;;;;-145.06;0.00;60892.56;4732552;29;20420;-88
2022/04/28 09:30:22;;;;;;;;;;;;;;;-145.06;0.00;60892.56;4720812;29;19959;-89
2022/04/28 09:33:09;;;;;;;;;;;;;;;21.08;0.00;60892.56;4743170;29;19923;-89
2022/04/28 09:35:49;;;;;;;;;;;;;;;-145.06;0.00;60892.56;4736245;29;19919;-89
2022/04/28 09:38:28;;;;;;;;;;;;;;;-145.06;0.00;60892.56;4724062;29;19924;-90
2022/04/28 09:44:12;;;;;;;;;;;;;;;-145.06;0.00;60892.56;4738179;29;19924;-90
2022/04/28 09:46:51;;;;;;;;;;;;;;;-145.06;0.00;60892.56;4740911;29;19919;-89
2022/04/28 09:49:30;;;;;;;;;;;;;;;-145.06;0.00;60892.56;4749678;29;19951;-89
2022/04/28 09:52:09;;;;;;;;;;;;;;;-145.06;0.00;60892.56;4721001;29;19963;-89
2022/04/28 09:54:50;;;;;;;;;;;;;;;-145.06;0.00;60892.56;4738253;29;20365;-88
2022/04/28 09:57:30;;;;;;;;;;;;;;;-145.06;0.00;60892.56;4737162;29;20305;-90
2022/04/28 10:00:09;;;;;;;;;;;;;;;-145.06;0.00;60892.56;4718633;29;19928;-88
2022/04/28 10:02:49;;;;;;;;;;;;;;;15.85;0.00;60892.56;4731843;29;20397;-90
2022/04/28 10:05:28;;;;;;;;;;;;;;;-145.06;0.00;60892.56;4735719;29;19923;-90
2022/04/28 10:08:08;;;;;;;;;;;;;;;-145.06;0.00;60892.56;4755183;29;19923;-89
2022/04/28 10:10:50;;;;;;;;;;;;;;;-145.06;0.00;60892.56;4720943;29;19920;-89
2022/04/28 10:13:29;;;;;;;;;;;;;;;-145.06;0.00;60892.56;4731548;29;19923;-89
2022/04/28 10:16:10;;;;;;;;;;;;;;;-145.06;0.00;60892.56;4736596;29;19915;-90
2022/04/28 10:19:10;;;;;;;;;;;;;;;-145.06;0.00;60892.56;4758265;29;19919;-89
2022/04/28 10:21:52;;;;;;;;;;;;;;;-145.06;0.00;60892.56;4737671;29;19923;-90
2022/04/28 10:33:25;;;;;;;;;;;;;;;-145.06;0.00;60892.56;4745128;29;19927;-89
2022/04/28 10:36:04;;;;;;;;;;;;;;;-145.06;0.00;60892.56;4726095;29;20323;-89
2022/04/28 10:39:03;;;;;;;;;;;;;;;-145.06;0.00;60892.56;4738381;29;19954;-89
2022/04/28 10:41:42;;;;;;;;;;;;;;;-145.06;0.00;60892.56;4734963;29;19923;-88
2022/04/28 10:44:28;;;;;;;;;;;;;;;-145.06;0.00;60892.56;4738155;29;19919;-89
2022/04/28 10:47:08;;;;;;;;;;;;;;;-145.06;0.00;60892.56;4746783;29;19914;-89
2022/04/28 10:49:51;;;;;;;;;;;;;;;-145.06;0.00;60892.56;4730942;29;20263;-88
2022/04/28 10:52:30;;;;;;;;;;;;;;;-145.06;0.00;60892.56;4731913;29;19923;-89
2022/04/28 10:55:12;;;;;;;;;;;;;;;-145.06;0.00;60892.56;4732073;29;20018;-90
2022/04/28 10:57:52;;;;;;;;;;;;;;;-145.06;0.00;60892.56;4740696;29;20421;-89
2022/04/28 11:00:34;;;;;;;;;;;;;;;-145.06;0.00;60892.56;4739382;29;19919;-88
2022/04/28 11:03:35;;;;;;;;;;;;;;;-145.06;0.00;60892.56;4726788;29;19919;-90
2022/04/28 11:06:16;;;;;;;;;;;;;;;-145.06;0.00;60892.56;4741363;29;19959;-89
2022/04/28 11:08:57;;;;;;;;;;;;;;;-145.06;0.00;60892.56;4757068;29;19958;-87
2022/04/28 11:11:43;;;;;;;;;;;;;;;-145.06;0.00;60892.56;4756684;29;20258;-87
2022/04/28 11:14:22;;;;;;;;;;;;;;;-145.06;0.00;60892.56;4723368;29;20425;-87
2022/04/28 11:17:01;;;;;;;;;;;;;;;-145.06;0.00;60892.56;4734693;29;19919;-86
2022/04/28 11:19:40;;;;;;;;;;;;;;;-145.06;0.00;60892.56;4735312;29;19915;-87
2022/04/28 11:22:20;;;;;;;;;;;;;;;-145.06;0.00;60892.56;4737229;29;19915;-87
2022/04/28 11:24:59;;;;;;;;;;;;;;;-145.06;0.00;60892.56;4735208;29;20261;-87
2022/04/28 11:27:38;;;;;;;;;;;;;;;-145.06;0.00;60892.56;4728703;29;20149;-88
2022/04/28 11:30:19;;;;;;;;;;;;;;;-145.06;0.00;60892.56;4726730;29;19919;-87
2022/04/28 11:32:58;;;;;;;;;;;;;;;-145.06;0.00;60892.56;4744450;29;19916;-88
2022/04/28 11:35:40;;;;;;;;;;;;;;;-145.06;0.00;60892.56;4734487;29;19915;-87
2022/04/28 11:38:24;;;;;;;;;;;;;;;-145.06;0.00;60892.56;4744922;29;19919;-88
2022/04/28 11:41:03;;;;;;;;;;;;;;;-145.06;0.00;60892.56;4738195;29;20250;-88
2022/04/28 11:43:42;;;;;;;;;;;;;;;-145.06;0.00;60892.56;4755372;29;19915;-87
2022/04/28 11:46:21;;;;;;;;;;;;;;;-145.06;0.00;60892.56;4735709;29;19914;-87
2022/04/28 11:49:00;;;;;;;;;;;;;;;-145.06;0.00;60892.56;4732493;29;19919;-87
2022/04/28 11:51:39;;;;;;;;;;;;;;;-145.06;0.00;60892.56;4749897;29;19915;-87
2022/04/28 11:54:19;;;;;;;;;;;;;;;-145.06;0.00;60892.56;4734975;29;19919;-87
2022/04/28 11:57:09;;;;;;;;;;;;;;;-145.06;0.00;60892.56;4732279;29;20350;-87
2022/04/28 11:59:48;;;;;;;;;;;;;;;-145.06;0.00;60892.56;4734631;29;19919;-87
2022/04/28 12:02:27;;;;;;;;;;;;;;;-145.06;0.00;60892.56;4734296;29;19916;-87
2022/04/28 12:05:19;;;;;;;;;;;;;;;-145.06;0.00;60892.56;4733696;29;19919;-88
2022/04/28 12:07:58;;;;;;;;;;;;;;;-145.06;0.00;60892.56;4754814;29;19927;-87
2022/04/28 12:19:44;;;;;;;;;;;;;;;-145.06;0.00;60892.56;4764124;29;19954;-88
2022/04/28 12:22:28;;;;;;;;;;;;;;;-145.06;0.00;60892.56;4733750;29;19966;-88
2022/04/28 12:25:09;;;;;;;;;;;;;;;-145.06;0.00;60892.56;4735955;29;19915;-87
2022/04/28 12:27:51;;;;;;;;;;;;;;;20.77;0.00;60892.56;4734345;29;19919;-87
2022/04/28 12:30:35;;;;;;;;;;;;;;;20.81;0.00;60892.56;4751965;29;19915;-87
2022/04/28 12:33:18;;;;;;;;;;;;;;;20.85;0.00;60892.56;4734263;29;20006;-87
2022/04/28 12:35:57;;;;;;;;;;;;;;;-145.06;0.00;60892.56;4752799;29;19915;-86
2022/04/28 12:38:36;;;;;;;;;;;;;;;-145.06;0.00;60892.56;4722767;29;19916;-87
2022/04/28 12:41:16;;;;;;;;;;;;;;;-145.06;0.00;60892.56;4747491;29;20243;-87
2022/04/28 12:44:00;;;;;;;;;;;;;;;-145.06;0.00;60892.56;4753670;29;20269;-88
2022/04/28 12:46:39;;;;;;;;;;;;;;;-145.06;0.00;60892.56;4730187;29;19919;-86
2022/04/28 12:49:19;;;;;;;;;;;;;;;-145.06;0.00;60892.56;4733590;29;20393;-87
2022/04/28 12:51:59;;;;;;;;;;;;;;;-145.06;0.00;60892.56;4753886;29;19919;-87
2022/04/28 12:54:38;;;;;;;;;;;;;;;-145.06;0.00;60892.56;4731695;29;19915;-87
2022/04/28 12:57:16;;;;;;;;;;;;;;;-145.06;0.00;60892.56;4731427;29;19954;-87
2022/04/28 12:59:55;;;;;;;;;;;;;;;-145.06;0.00;60892.56;4734013;29;20385;-87
2022/04/28 13:02:35;;;;;;;;;;;;;;;-145.06;0.00;60892.56;4754481;29;19915;-87
2022/04/28 13:05:15;;;;;;;;;;;;;;;-145.06;0.00;60892.56;4748747;29;19919;-87
2022/04/28 13:07:54;;;;;;;;;;;;;;;-145.06;0.00;60892.56;4742163;29;19923;-87
2022/04/28 13:10:33;;;;;;;;;;;;;;;-145.06;0.00;60892.56;4728205;29;19998;-87
2022/04/28 13:13:12;;;;;;;;;;;;;;;-145.06;0.00;60892.56;4733506;29;20013;-87
2022/04/28 13:15:51;;;;;;;;;;;;;;;-145.06;0.00;60892.56;4741075;29;19915;-87
2022/04/28 13:18:30;;;;;;;;;;;;;;;-145.06;0.00;60892.56;4736588;29;19919;-86
2022/04/28 13:21:11;;;;;;;;;;;;;;;-145.06;0.00;60892.56;4726769;29;19920;-87
2022/04/28 13:23:50;;;;;;;;;;;;;;;-145.06;0.00;60892.56;4733882;29;19919;-86
2022/04/28 13:26:29;;;;;;;;;;;;;;;-145.06;0.00;60892.56;4748268;29;19923;-86
2022/04/28 13:29:10;;;;;;;;;;;;;;;-145.06;0.00;60892.56;4727221;29;19962;-87
2022/04/28 13:31:48;;;;;;;;;;;;;;;-145.06;0.00;60892.56;4732477;29;19966;-87
2022/04/28 13:34:28;;;;;;;;;;;;;;;-145.06;0.00;60892.56;4753613;29;19915;-87
2022/04/28 13:37:07;;;;;;;;;;;;;;;-145.06;0.00;60892.56;4723179;29;19919;-87
2022/04/28 13:39:46;;;;;;;;;;;;;;;-145.06;0.00;60892.56;4742000;29;19920;-87
2022/04/28 13:42:25;;;;;;;;;;;;;;;-145.06;0.00;60892.56;4747808;29;20005;-87
2022/04/28 13:45:04;;;;;;;;;;;;;;;-145.06;0.00;60892.56;4731637;29;19919;-88
2022/04/28 13:47:43;;;;;;;;;;;;;;;-145.06;0.00;60892.56;4724021;29;19923;-87
2022/04/28 13:50:22;;;;;;;;;;;;;;;-145.06;0.00;60892.56;4727320;29;20362;-88
2022/04/28 13:53:01;;;;;;;;;;;;;;;-145.06;0.00;60892.56;4716742;29;20014;-87
2022/04/28 13:55:40;;;;;;;;;;;;;;;-145.06;0.00;60892.56;4716764;29;19924;-87
2022/04/28 13:58:19;;;;;;;;;;;;;;;-145.06;0.00;60892.56;4724223;29;19916;-88
2022/04/28 14:00:58;;;;;;;;;;;;;;;-145.06;0.00;60892.56;4722832;29;19915;-89
2022/04/28 14:03:37;;;;;;;;;;;;;;;-145.06;0.00;60892.56;4732907;29;19923;-88
2022/04/28 14:06:17;;;;;;;;;;;;;;;-145.06;0.00;60892.56;4733838;29;19923;-87
2022/04/28 14:08:56;;;;;;;;;;;;;;;-145.06;0.00;60892.56;4722284;29;19923;-89
2022/04/28 14:11:35;;;;;;;;;;;;;;;-145.06;0.00;60892.56;4729729;29;19916;-88
2022/04/28 14:14:15;;;;;;;;;;;;;;;-145.06;0.00;60892.56;4730630;29;19927;-87
2022/04/28 14:16:54;;;;;;;;;;;;;;;-145.06;0.00;60892.56;4723731;29;19919;-88
2022/04/28 14:19:33;;;;;;;;;;;;;;;-145.06;0.00;60892.56;4720748;29;19923;-88
2022/04/28 14:22:17;;;;;;;;;;;;;;;-145.06;0.00;60892.56;4725234;29;19920;-89
2022/04/28 14:24:57;;;;;;;;;;;;;;;-145.06;0.00;60892.56;4723629;29;20314;-88